Time;durP1;ratioP1;P1;durP2;ratioP2;P2;SDS_P1;SDS_P2;PMS_P1;PMS_P2;Temp;Humidity;BMP_temperature;BMP_pressure;BME280_temperature;BME280_humidity;BME280_pressure;Samples;Min_cycle;Max_cycle;Signal;HPM_P1;HPM_P2
2023/01/01 00:00:01;;;;;;;;;;;;;;;14.89;63.22;97529.47;4202484;28;5699;-71
2023/01/01 00:02:06;;;;;;;;;;;;;;;14.88;63.32;97541.16;4202108;28;5703;-70
2023/01/01 00:04:13;;;;;;;;;;;;;;;14.88;63.37;97540.34;4202774;28;5750;-72
2023/01/01 00:06:16;;;;;;;;;;;;;;;14.87;63.30;97536.03;4202662;28;5687;-71
2023/01/01 00:08:19;;;;;;;;;;;;;;;14.87;63.38;97528.03;4202305;28;5612;-71
2023/01/01 00:10:27;;;;;;;;;;;;;;;14.86;63.49;97532.56;4192989;28;5646;-71
2023/01/01 00:12:31;;;;;;;;;;;;;;;14.84;63.59;97530.09;4195955;28;5722;-70
2023/01/01 00:14:34;;;;;;;;;;;;;;;14.86;63.57;97527.22;4202830;28;5804;-71
2023/01/01 00:16:37;;;;;;;;;;;;;;;14.86;63.31;97535.22;4199316;28;5658;-71
2023/01/01 00:18:42;;;;;;;;;;;;;;;14.82;63.47;97516.16;4195768;28;5798;-70
2023/01/01 00:20:45;;;;;;;;;;;;;;;14.84;63.40;97537.25;4193627;28;6104;-72
2023/01/01 00:22:48;;;;;;;;;;;;;;;14.83;63.50;97532.94;4199369;28;6327;-71
2023/01/01 00:24:58;;;;;;;;;;;;;;;14.85;63.33;97536.25;4202602;28;5117;-70
2023/01/01 00:27:02;;;;;;;;;;;;;;;14.86;63.49;97529.88;4202413;28;7826;-71
2023/01/01 00:29:05;;;;;;;;;;;;;;;14.88;63.32;97525.19;4202052;28;5723;-71
2023/01/01 00:31:09;;;;;;;;;;;;;;;14.84;63.52;97518.63;4197627;28;5841;-71
2023/01/01 00:33:12;;;;;;;;;;;;;;;14.85;63.33;97536.25;4201675;28;6930;-71
2023/01/01 00:35:17;;;;;;;;;;;;;;;14.84;63.56;97518.63;4201874;28;6389;-71
2023/01/01 00:37:21;;;;;;;;;;;;;;;14.86;63.41;97521.91;4202188;28;5620;-71
2023/01/01 00:39:24;;;;;;;;;;;;;;;14.85;63.60;97520.28;4202018;28;5683;-70
2023/01/01 00:41:27;;;;;;;;;;;;;;;14.87;63.35;97522.72;4202729;28;5778;-72
2023/01/01 00:43:30;;;;;;;;;;;;;;;14.85;63.35;97522.94;4202571;28;5687;-72
2023/01/01 00:45:33;;;;;;;;;;;;;;;14.83;63.55;97516.97;4202977;28;5711;-71
2023/01/01 00:47:36;;;;;;;;;;;;;;;14.81;63.46;97517.16;4202499;28;5706;-70
2023/01/01 00:49:39;;;;;;;;;;;;;;;14.80;63.70;97522.69;4200154;28;5889;-71
2023/01/01 00:51:44;;;;;;;;;;;;;;;14.84;63.40;97516.78;4193289;28;5882;-71
2023/01/01 00:53:47;;;;;;;;;;;;;;;14.83;63.30;97511.63;4197085;28;5632;-71
2023/01/01 00:55:50;;;;;;;;;;;;;;;14.82;63.48;97510.00;4201320;28;5699;-70
2023/01/01 00:57:53;;;;;;;;;;;;;;;14.81;63.37;97509.19;4197897;28;5726;-70
2023/01/01 00:59:57;;;;;;;;;;;;;;;14.81;63.54;97506.53;4198209;28;5635;-71
2023/01/01 01:02:00;;;;;;;;;;;;;;;14.82;63.54;97510.00;4196722;28;5544;-71
2023/01/01 01:04:05;;;;;;;;;;;;;;;14.83;63.35;97503.66;4199556;28;5694;-71
2023/01/01 01:06:11;;;;;;;;;;;;;;;14.82;63.48;97502.00;4201855;28;5750;-71
2023/01/01 01:08:15;;;;;;;;;;;;;;;14.82;63.36;97504.69;4201812;28;5631;-71
2023/01/01 01:10:20;;;;;;;;;;;;;;;14.85;63.39;97514.94;4201756;28;5699;-71
2023/01/01 01:12:23;;;;;;;;;;;;;;;14.84;63.38;97519.44;4191247;28;5706;-71
2023/01/01 01:14:26;;;;;;;;;;;;;;;14.84;63.17;97518.63;4195460;28;5651;-71
2023/01/01 01:16:31;;;;;;;;;;;;;;;14.84;63.34;97518.63;4201345;28;5081;-71
2023/01/01 01:18:35;;;;;;;;;;;;;;;14.85;63.25;97517.59;4201011;28;5660;-70
2023/01/01 01:20:38;;;;;;;;;;;;;;;14.85;63.28;97517.59;4201082;28;5750;-71
2023/01/01 01:22:41;;;;;;;;;;;;;;;14.86;63.24;97516.56;4201455;28;5655;-71
2023/01/01 01:24:46;;;;;;;;;;;;;;;14.87;63.37;97515.56;4201238;28;5635;-71
2023/01/01 01:26:49;;;;;;;;;;;;;;;14.87;63.43;97520.06;4201432;28;5751;-71
2023/01/01 01:28:53;;;;;;;;;;;;;;;14.84;63.43;97521.28;4201455;28;5762;-70
2023/01/01 01:30:59;;;;;;;;;;;;;;;14.84;63.34;97519.44;4199587;28;5675;-72
2023/01/01 01:33:02;;;;;;;;;;;;;;;14.82;63.29;97510.00;4196549;28;5722;-71
2023/01/01 01:35:06;;;;;;;;;;;;;;;14.81;63.29;97519.00;4190995;28;5842;-71
2023/01/01 01:37:09;;;;;;;;;;;;;;;14.81;63.42;97530.47;4201140;28;5718;-72
2023/01/01 01:39:12;;;;;;;;;;;;;;;14.80;63.43;97522.69;4201216;28;5857;-70
2023/01/01 01:41:19;;;;;;;;;;;;;;;14.78;63.47;97525.56;4200907;28;5838;-72
2023/01/01 01:43:50;;;;;;;;;;;;;;;14.78;63.50;97530.06;4194303;28;5695;-71
2023/01/01 01:45:55;;;;;;;;;;;;;;;14.78;63.33;97530.06;4197695;28;5639;-72
2023/01/01 01:47:59;;;;;;;;;;;;;;;14.78;63.43;97527.41;4200461;28;5631;-71
2023/01/01 01:50:08;;;;;;;;;;;;;;;14.75;63.30;97525.16;4200808;28;5807;-71
2023/01/01 01:52:11;;;;;;;;;;;;;;;14.75;63.54;97522.50;4195176;28;5756;-71
2023/01/01 01:54:19;;;;;;;;;;;;;;;14.73;63.45;97527.22;4200863;28;6373;-71
2023/01/01 01:56:31;;;;;;;;;;;;;;;14.74;63.29;97534.16;4194270;28;5798;-71
2023/01/01 01:58:35;;;;;;;;;;;;;;;14.73;63.50;97532.53;4194691;28;5845;-72
2023/01/01 02:00:38;;;;;;;;;;;;;;;14.72;63.44;97536.19;4200194;28;5611;-72
2023/01/01 02:02:48;;;;;;;;;;;;;;;14.73;63.50;97537.84;4200102;28;5806;-70
2023/01/01 02:04:52;;;;;;;;;;;;;;;14.73;63.47;97543.19;4193131;28;5648;-71
2023/01/01 02:06:56;;;;;;;;;;;;;;;14.73;63.40;97551.97;4197748;28;5648;-71
2023/01/01 02:09:02;;;;;;;;;;;;;;;14.73;63.22;97551.97;4198208;28;5810;-71
2023/01/01 02:11:05;;;;;;;;;;;;;;;14.70;63.33;97549.69;4187757;28;5869;-71
2023/01/01 02:13:11;;;;;;;;;;;;;;;14.70;63.53;97562.19;4192991;28;5799;-71
2023/01/01 02:15:14;;;;;;;;;;;;;;;14.72;63.42;97562.78;4201711;28;5639;-71
2023/01/01 02:17:23;;;;;;;;;;;;;;;14.70;63.26;97565.66;4201696;28;5651;-71
2023/01/01 02:19:43;;;;;;;;;;;;;;;14.69;63.63;97568.53;4201568;28;6333;-71
2023/01/01 02:21:59;;;;;;;;;;;;;;;14.70;63.35;97575.50;4202708;28;5695;-72
2023/01/01 02:24:17;;;;;;;;;;;;;;;14.70;63.31;97570.97;4202107;28;5764;-71
2023/01/01 02:26:46;;;;;;;;;;;;;;;14.72;63.33;97579.63;4186753;28;5641;-71
2023/01/01 02:28:57;;;;;;;;;;;;;;;14.73;63.41;97577.78;4199537;28;5636;-71
2023/01/01 02:31:01;;;;;;;;;;;;;;;14.70;63.40;97570.16;4188630;28;5612;-71
2023/01/01 02:33:10;;;;;;;;;;;;;;;14.68;63.55;97577.53;4201397;28;5642;-71
2023/01/01 02:35:37;;;;;;;;;;;;;;;14.67;63.42;97575.91;4203192;28;5838;-71
2023/01/01 02:37:40;;;;;;;;;;;;;;;14.67;63.56;97578.56;4197712;28;5703;-71
2023/01/01 02:39:48;;;;;;;;;;;;;;;14.66;63.50;97571.59;4197181;28;5631;-71
2023/01/01 02:41:55;;;;;;;;;;;;;;;14.67;63.44;97582.03;4203280;28;5636;-72
2023/01/01 02:43:59;;;;;;;;;;;;;;;14.70;63.42;97586.13;4191551;28;5646;-72
2023/01/01 02:46:05;;;;;;;;;;;;;;;14.67;63.45;97586.53;4196772;28;5747;-72
2023/01/01 02:48:43;;;;;;;;;;;;;;;14.67;63.47;97587.38;4201026;28;5824;-72
2023/01/01 02:50:47;;;;;;;;;;;;;;;14.69;63.44;97584.50;4198036;28;5698;-72
2023/01/01 02:53:03;;;;;;;;;;;;;;;14.70;63.43;97588.78;4202779;28;5687;-71
2023/01/01 02:55:16;;;;;;;;;;;;;;;14.69;63.52;97587.97;4202849;28;5632;-71
2023/01/01 02:57:27;;;;;;;;;;;;;;;14.70;63.42;97589.63;4202703;28;5643;-71
2023/01/01 03:02:02;;;;;;;;;;;;;;;14.68;63.60;97599.66;4202539;28;5628;-71
2023/01/01 03:04:11;;;;;;;;;;;;;;;14.68;63.35;97591.66;4200685;28;5794;-71
2023/01/01 03:06:23;;;;;;;;;;;;;;;14.68;63.69;97602.31;4199868;28;5691;-71
2023/01/01 03:08:35;;;;;;;;;;;;;;;14.69;63.49;97608.44;4193758;28;5639;-71
2023/01/01 03:10:45;;;;;;;;;;;;;;;14.69;63.47;97595.16;4198733;28;5807;-71
2023/01/01 03:12:54;;;;;;;;;;;;;;;14.70;63.69;97596.78;4201148;28;5720;-71
2023/01/01 03:15:00;;;;;;;;;;;;;;;14.70;63.44;97604.75;4202787;28;5655;-72
2023/01/01 03:17:07;;;;;;;;;;;;;;;14.72;63.34;97592.06;4202026;28;5698;-71
2023/01/01 03:19:17;;;;;;;;;;;;;;;14.71;63.46;97593.91;4201848;28;5789;-71
2023/01/01 03:21:22;;;;;;;;;;;;;;;14.71;63.43;97598.41;4200243;28;5671;-71
2023/01/01 03:23:31;;;;;;;;;;;;;;;14.71;63.33;97606.41;4202071;28;5648;-72
2023/01/01 03:25:39;;;;;;;;;;;;;;;14.69;63.28;97603.13;4195037;28;5746;-71
2023/01/01 03:27:44;;;;;;;;;;;;;;;14.67;63.60;97603.34;4196574;28;5702;-71
2023/01/01 03:29:51;;;;;;;;;;;;;;;14.69;63.42;97605.78;4201463;28;5695;-71
2023/01/01 03:31:57;;;;;;;;;;;;;;;14.70;63.44;97605.59;4202271;28;5695;-71
2023/01/01 03:34:05;;;;;;;;;;;;;;;14.70;63.22;97602.09;4197773;28;6340;-71
2023/01/01 03:36:13;;;;;;;;;;;;;;;14.69;63.50;97611.09;4186503;28;5078;-72
2023/01/01 03:38:21;;;;;;;;;;;;;;;14.69;63.45;97606.59;4202274;28;5676;-71
2023/01/01 03:40:26;;;;;;;;;;;;;;;14.70;63.51;97608.25;4202517;28;5694;-72
2023/01/01 03:42:35;;;;;;;;;;;;;;;14.71;63.32;97601.09;4202530;28;5679;-72
2023/01/01 03:44:47;;;;;;;;;;;;;;;14.67;63.39;97603.34;4202738;28;5632;-72
2023/01/01 03:46:50;;;;;;;;;;;;;;;14.69;63.31;97611.09;4202373;28;5710;-70
2023/01/01 03:48:58;;;;;;;;;;;;;;;14.71;63.31;97614.38;4202338;28;5710;-71
2023/01/01 03:51:17;;;;;;;;;;;;;;;14.67;63.20;97619.28;4202459;28;5679;-72
2023/01/01 03:53:36;;;;;;;;;;;;;;;14.68;63.43;97615.63;4202683;28;5691;-71
2023/01/01 10:21:06;;;;;;;;;;;;;;;13.46;73.17;97622.38;4247499;27;10275;-71
2023/01/01 10:23:16;;;;;;;;;;;;;;;13.78;72.49;97621.00;4237375;27;5605;-71
2023/01/01 10:25:22;;;;;;;;;;;;;;;14.01;72.17;97610.13;4231506;27;5939;-71
2023/01/01 10:27:33;;;;;;;;;;;;;;;14.22;71.63;97613.53;4231666;27;7027;-70
2023/01/01 10:29:41;;;;;;;;;;;;;;;14.37;71.24;97608.06;4237189;27;5677;-71
2023/01/01 10:31:46;;;;;;;;;;;;;;;14.51;70.77;97612.50;4223774;27;5631;-71
2023/01/01 10:33:49;;;;;;;;;;;;;;;14.62;70.76;97610.28;4214083;28;5813;-71
2023/01/01 10:35:55;;;;;;;;;;;;;;;14.69;70.51;97603.13;4213803;28;5687;-71
2023/01/01 10:38:00;;;;;;;;;;;;;;;14.76;70.21;97606.66;4214939;27;5721;-71
2023/01/01 10:40:15;;;;;;;;;;;;;;;14.80;70.10;97597.22;4222693;28;5703;-70
2023/01/01 10:42:18;;;;;;;;;;;;;;;14.85;70.05;97598.28;4228981;28;5112;-71
2023/01/01 10:44:28;;;;;;;;;;;;;;;14.91;69.79;97591.31;4230635;28;7659;-71
2023/01/01 10:46:31;;;;;;;;;;;;;;;14.97;69.58;97592.38;4225055;27;5806;-71
2023/01/01 10:48:34;;;;;;;;;;;;;;;15.00;69.42;97587.47;4230626;28;5616;-72
2023/01/01 10:50:43;;;;;;;;;;;;;;;15.04;69.31;97590.53;4229525;28;5721;-72
2023/01/01 10:52:56;;;;;;;;;;;;;;;15.08;69.10;97586.47;4230327;28;6358;-72
2023/01/01 10:55:00;;;;;;;;;;;;;;;15.10;68.81;97573.75;4230434;28;5084;-72
2023/01/01 10:57:15;;;;;;;;;;;;;;;15.10;68.71;97582.56;4228020;28;5628;-72
2023/01/01 10:59:37;;;;;;;;;;;;;;;15.13;68.72;97581.34;4230809;28;5709;-72
2023/01/01 11:01:40;;;;;;;;;;;;;;;15.15;68.62;97577.44;4232259;27;5067;-72
2023/01/01 11:04:00;;;;;;;;;;;;;;;15.19;68.46;97563.75;4247390;27;5684;-72
2023/01/01 11:06:06;;;;;;;;;;;;;;;15.20;67.73;97565.38;4247228;27;5684;-72
2023/01/01 11:08:18;;;;;;;;;;;;;;;15.21;67.76;97559.03;4247384;27;5672;-72
2023/01/01 11:10:25;;;;;;;;;;;;;;;15.23;67.87;97560.44;4239095;27;5711;-71
2023/01/01 11:12:31;;;;;;;;;;;;;;;15.24;67.72;97558.59;4226581;28;5699;-72
2023/01/01 11:14:57;;;;;;;;;;;;;;;15.25;67.17;97560.25;4229695;28;5696;-70
2023/01/01 11:17:00;;;;;;;;;;;;;;;15.26;66.80;97553.88;4215344;28;5718;-71
2023/01/01 11:19:05;;;;;;;;;;;;;;;15.26;66.56;97537.91;4213897;28;5852;-71
2023/01/01 11:21:08;;;;;;;;;;;;;;;15.28;66.27;97546.50;4222691;28;5708;-71
2023/01/01 11:23:20;;;;;;;;;;;;;;;15.29;66.14;97545.47;4214175;28;6279;-71
2023/01/01 11:25:27;;;;;;;;;;;;;;;15.30;65.83;97544.47;4218449;28;5092;-71
2023/01/01 11:27:30;;;;;;;;;;;;;;;15.31;65.25;97541.59;4215958;28;5830;-72
2023/01/01 11:29:32;;;;;;;;;;;;;;;15.31;64.66;97538.13;4218398;28;5601;-71
2023/01/01 11:31:38;;;;;;;;;;;;;;;15.31;64.67;97536.28;4215045;28;5699;-72
2023/01/01 11:33:46;;;;;;;;;;;;;;;15.35;64.62;97531.34;4200918;28;5612;-71
2023/01/01 11:35:52;;;;;;;;;;;;;;;15.36;63.88;97527.66;4217904;28;5729;-72
2023/01/01 11:37:56;;;;;;;;;;;;;;;15.38;63.93;97522.94;4225520;28;5594;-72
2023/01/01 11:40:01;;;;;;;;;;;;;;;15.39;63.53;97520.06;4226466;28;5696;-72
2023/01/01 11:42:07;;;;;;;;;;;;;;;15.38;63.27;97510.44;4216563;28;5868;-72
2023/01/01 11:44:11;;;;;;;;;;;;;;;15.40;62.96;97511.09;4226945;28;5685;-71
2023/01/01 11:46:23;;;;;;;;;;;;;;;15.42;62.77;97506.34;4226331;28;5844;-71
2023/01/01 11:48:29;;;;;;;;;;;;;;;15.43;62.71;97496.53;4222699;28;5716;-71
2023/01/01 11:50:34;;;;;;;;;;;;;;;15.44;62.50;97498.16;4230028;28;5683;-71
2023/01/01 11:52:39;;;;;;;;;;;;;;;15.45;62.56;97494.47;4225832;28;5601;-71
2023/01/01 11:54:44;;;;;;;;;;;;;;;15.46;62.43;97498.75;4224544;28;5703;-72
2023/01/01 11:56:50;;;;;;;;;;;;;;;15.48;62.24;97493.22;4233934;28;5103;-72
2023/01/01 11:58:57;;;;;;;;;;;;;;;15.51;62.27;97490.94;4226348;28;5817;-72
2023/01/01 12:01:04;;;;;;;;;;;;;;;15.51;62.10;97488.28;4218850;28;5601;-72
2023/01/01 12:03:19;;;;;;;;;;;;;;;15.56;61.81;97490.34;4226679;28;5597;-72
2023/01/01 12:05:25;;;;;;;;;;;;;;;15.56;61.54;97493.84;4226238;28;5613;-71
2023/01/01 12:07:34;;;;;;;;;;;;;;;15.57;61.58;97484.81;4231019;28;5605;-71
2023/01/01 12:09:44;;;;;;;;;;;;;;;15.58;61.31;97483.78;4221774;28;5697;-71
2023/01/01 12:11:51;;;;;;;;;;;;;;;15.59;61.22;97477.41;4226427;28;5710;-71
2023/01/01 12:14:01;;;;;;;;;;;;;;;15.61;61.29;97478.06;4218246;28;5797;-71
2023/01/01 12:16:11;;;;;;;;;;;;;;;15.63;60.79;97470.69;4219117;28;5717;-71
2023/01/01 12:18:19;;;;;;;;;;;;;;;15.63;60.63;97465.38;4220273;28;5854;-71
2023/01/01 12:20:26;;;;;;;;;;;;;;;15.65;60.69;97460.63;4222278;28;6518;-71
2023/01/01 12:22:29;;;;;;;;;;;;;;;15.66;60.58;97458.78;4223183;28;5693;-72
2023/01/01 12:24:34;;;;;;;;;;;;;;;15.67;60.58;97465.75;4225997;28;5677;-71
2023/01/01 12:26:52;;;;;;;;;;;;;;;15.68;60.45;97467.41;4225999;28;6141;-71
2023/01/01 12:29:38;;;;;;;;;;;;;;;15.70;60.38;97460.00;4223455;28;5731;-71
2023/01/01 12:31:50;;;;;;;;;;;;;;;15.72;60.20;97458.75;4157140;28;5913;-71
2023/01/01 12:34:10;;;;;;;;;;;;;;;15.73;60.02;97448.91;4164670;28;5813;-72
2023/01/01 12:36:24;;;;;;;;;;;;;;;15.77;59.94;97446.66;4151627;28;5797;-72
2023/01/01 12:38:48;;;;;;;;;;;;;;;15.80;59.30;97441.72;4157525;28;5910;-72
2023/01/01 12:41:00;;;;;;;;;;;;;;;15.84;59.50;97444.78;4156797;28;5949;-72
2023/01/01 12:43:04;;;;;;;;;;;;;;;15.85;59.40;97438.41;4150334;28;5805;-72
2023/01/01 12:45:44;;;;;;;;;;;;;;;15.86;59.32;97438.22;4158452;28;5888;-71
2023/01/01 12:47:57;;;;;;;;;;;;;;;15.89;59.33;97426.31;4140216;28;5811;-72
2023/01/01 12:50:09;;;;;;;;;;;;;;;15.91;59.13;97425.06;4149990;28;5853;-72
2023/01/01 12:52:26;;;;;;;;;;;;;;;15.91;59.17;97419.75;4157251;28;5839;-72
2023/01/01 12:55:24;;;;;;;;;;;;;;;15.94;59.06;97423.81;4156594;28;5809;-71
2023/01/01 12:57:32;;;;;;;;;;;;;;;15.94;58.84;97424.63;4108917;28;5835;-71
2023/01/01 12:59:38;;;;;;;;;;;;;;;15.95;58.92;97425.47;4113555;28;5912;-72
2023/01/01 13:01:43;;;;;;;;;;;;;;;15.95;58.94;97426.28;4110611;28;6541;-72
2023/01/01 13:03:51;;;;;;;;;;;;;;;15.93;59.09;97416.84;4108685;28;5900;-71
2023/01/01 13:05:56;;;;;;;;;;;;;;;15.94;58.81;97423.81;4139064;28;5765;-72
2023/01/01 13:08:03;;;;;;;;;;;;;;;15.95;58.63;97420.13;4149342;28;5704;-71
2023/01/01 13:10:12;;;;;;;;;;;;;;;15.94;58.63;97405.97;4149104;28;5824;-71
2023/01/01 13:12:18;;;;;;;;;;;;;;;15.96;58.73;97416.44;4148531;28;5707;-72
2023/01/01 13:14:21;;;;;;;;;;;;;;;15.97;58.72;97415.44;4148920;28;5699;-72
2023/01/01 13:16:36;;;;;;;;;;;;;;;15.96;58.77;97411.91;4153527;28;5824;-72
2023/01/01 13:18:40;;;;;;;;;;;;;;;15.98;58.58;97414.41;4153887;28;5681;-72
2023/01/01 13:20:45;;;;;;;;;;;;;;;16.00;58.35;97407.00;4146061;28;5775;-71
2023/01/01 13:22:48;;;;;;;;;;;;;;;16.00;58.44;97402.47;4156554;28;5823;-72
2023/01/01 13:25:04;;;;;;;;;;;;;;;16.02;58.32;97407.59;4150999;28;6214;-72
2023/01/01 13:27:09;;;;;;;;;;;;;;;16.05;58.42;97398.34;4149804;28;5910;-72
2023/01/01 13:29:34;;;;;;;;;;;;;;;16.04;58.20;97405.53;4157964;28;5839;-72
2023/01/01 13:32:03;;;;;;;;;;;;;;;16.02;58.14;97397.75;4155259;28;5755;-71
2023/01/01 13:34:36;;;;;;;;;;;;;;;16.03;58.14;97411.91;4226831;28;5685;-71
2023/01/01 13:36:39;;;;;;;;;;;;;;;16.05;58.04;97404.50;4222804;28;5688;-72
2023/01/01 13:38:45;;;;;;;;;;;;;;;16.08;57.88;97409.41;4218031;28;5617;-71
2023/01/01 13:40:51;;;;;;;;;;;;;;;16.10;57.87;97402.03;4232235;28;5768;-71
2023/01/01 13:43:06;;;;;;;;;;;;;;;16.11;57.73;97406.31;4216448;28;5620;-71
2023/01/01 13:45:14;;;;;;;;;;;;;;;16.13;57.87;97406.09;4218754;28;5664;-71
2023/01/01 13:47:51;;;;;;;;;;;;;;;16.13;57.80;97409.59;4220133;28;5594;-71
2023/01/01 13:50:05;;;;;;;;;;;;;;;16.13;57.61;97404.25;4224523;28;5594;-71
2023/01/01 13:52:38;;;;;;;;;;;;;;;16.12;57.62;97399.94;4218143;28;5610;-71
2023/01/01 13:55:21;;;;;;;;;;;;;;;16.11;57.68;97401.00;4231385;28;5689;-72
2023/01/01 13:57:44;;;;;;;;;;;;;;;16.12;57.71;97399.94;4206751;28;5621;-71
2023/01/01 13:59:57;;;;;;;;;;;;;;;16.14;57.59;97403.22;4223604;28;6535;-72
2023/01/01 14:02:19;;;;;;;;;;;;;;;16.13;57.65;97401.59;4216599;28;5708;-72
2023/01/01 14:04:39;;;;;;;;;;;;;;;16.15;57.58;97407.53;4224567;28;5598;-71
2023/01/01 14:06:50;;;;;;;;;;;;;;;16.13;57.45;97398.91;4225347;28;5733;-71
2023/01/01 14:09:01;;;;;;;;;;;;;;;16.16;57.66;97405.66;4224696;28;5688;-71
2023/01/01 14:11:19;;;;;;;;;;;;;;;16.17;57.46;97401.97;4216522;28;5714;-72
2023/01/01 14:13:26;;;;;;;;;;;;;;;16.17;57.28;97407.31;4224554;28;5681;-71
2023/01/01 14:15:34;;;;;;;;;;;;;;;16.18;57.34;97409.75;4210961;28;6439;-71
2023/01/01 14:17:37;;;;;;;;;;;;;;;16.19;57.23;97406.06;4230485;28;6201;-71
2023/01/01 14:19:41;;;;;;;;;;;;;;;16.19;57.29;97400.72;4226585;28;5620;-71
2023/01/01 14:21:46;;;;;;;;;;;;;;;16.21;57.25;97412.03;4224395;28;5711;-71
2023/01/01 14:23:51;;;;;;;;;;;;;;;16.22;57.14;97410.97;4223885;28;5749;-71
2023/01/01 14:25:54;;;;;;;;;;;;;;;16.21;57.25;97398.69;4224291;28;5598;-71
2023/01/01 14:27:58;;;;;;;;;;;;;;;16.23;57.13;97407.28;4224843;28;5699;-70
2023/01/01 14:30:01;;;;;;;;;;;;;;;16.22;57.17;97413.66;4224272;28;5624;-71
2023/01/01 14:32:14;;;;;;;;;;;;;;;16.23;57.09;97420.63;4224334;28;5792;-71
2023/01/01 14:34:24;;;;;;;;;;;;;;;16.25;57.08;97415.06;4221779;28;5737;-71
2023/01/01 14:36:29;;;;;;;;;;;;;;;16.25;57.08;97415.06;4211978;28;5712;-71
2023/01/01 14:38:35;;;;;;;;;;;;;;;16.25;57.08;97421.22;4224293;28;5681;-71
2023/01/01 14:40:37;;;;;;;;;;;;;;;16.25;56.98;97423.06;4226400;28;5629;-71
2023/01/01 14:42:41;;;;;;;;;;;;;;;16.26;56.94;97416.69;4222501;28;5590;-71
2023/01/01 14:44:44;;;;;;;;;;;;;;;16.23;56.88;97417.94;4222090;28;5778;-71
2023/01/01 14:46:49;;;;;;;;;;;;;;;16.22;57.00;97418.97;4219649;28;5605;-71
2023/01/01 14:48:55;;;;;;;;;;;;;;;16.25;56.76;97423.88;4221513;28;5598;-72
2023/01/01 14:50:58;;;;;;;;;;;;;;;16.26;56.84;97417.50;4210827;28;5735;-72
2023/01/01 14:53:04;;;;;;;;;;;;;;;16.26;56.82;97430.84;4215906;28;5688;-71
2023/01/01 14:55:18;;;;;;;;;;;;;;;16.27;56.78;97435.16;4219345;28;5617;-72
2023/01/01 14:57:25;;;;;;;;;;;;;;;16.27;56.69;97443.16;4227954;28;6025;-71
2023/01/01 14:59:30;;;;;;;;;;;;;;;16.27;56.68;97448.50;4223987;28;5779;-71
2023/01/01 15:01:33;;;;;;;;;;;;;;;16.30;56.59;97433.91;4227706;28;5704;-71
2023/01/01 15:03:36;;;;;;;;;;;;;;;16.29;56.54;97434.94;4227517;28;6435;-71
2023/01/01 15:05:40;;;;;;;;;;;;;;;16.28;56.68;97438.63;4227683;28;5069;-71
2023/01/01 15:07:43;;;;;;;;;;;;;;;16.30;56.37;97433.91;4227195;28;5632;-71
2023/01/01 15:09:45;;;;;;;;;;;;;;;16.30;56.41;97444.56;4226114;28;5644;-72
2023/01/01 15:11:53;;;;;;;;;;;;;;;16.32;56.46;97441.72;4224895;28;5656;-72
2023/01/01 15:13:58;;;;;;;;;;;;;;;16.30;56.59;97444.56;4227292;28;5673;-72
2023/01/01 15:16:15;;;;;;;;;;;;;;;16.30;56.43;97439.25;4225884;28;5694;-72
2023/01/01 15:18:41;;;;;;;;;;;;;;;16.30;56.36;97448.06;4222287;28;5072;-72
2023/01/01 15:20:53;;;;;;;;;;;;;;;16.30;56.33;97450.72;4226488;28;5701;-71
2023/01/01 15:22:56;;;;;;;;;;;;;;;16.29;56.31;97443.75;4218675;28;5715;-71
2023/01/01 15:24:59;;;;;;;;;;;;;;;16.28;56.22;97446.66;4227313;28;5751;-72
2023/01/01 15:27:05;;;;;;;;;;;;;;;16.27;56.46;97463.69;4228099;28;5613;-71
2023/01/01 15:29:14;;;;;;;;;;;;;;;16.25;56.38;97461.25;4228308;28;6494;-71
2023/01/01 15:31:16;;;;;;;;;;;;;;;16.26;56.27;97457.53;4220810;28;5693;-72
2023/01/01 15:33:20;;;;;;;;;;;;;;;16.25;56.15;97450.56;4228302;28;5669;-72
2023/01/01 15:35:29;;;;;;;;;;;;;;;16.23;56.24;97460.63;4226288;28;5688;-72
2023/01/01 15:37:36;;;;;;;;;;;;;;;16.22;56.40;97463.53;4226802;28;5720;-71
2023/01/01 15:39:48;;;;;;;;;;;;;;;16.20;56.34;97466.41;4219009;28;5644;-72
2023/01/01 15:41:52;;;;;;;;;;;;;;;16.18;56.25;97468.44;4224209;28;5596;-71
2023/01/01 15:44:08;;;;;;;;;;;;;;;16.17;56.31;97461.47;4197025;28;6448;-72
2023/01/01 15:46:20;;;;;;;;;;;;;;;16.17;56.37;97456.13;4209509;28;5858;-71
2023/01/01 15:48:36;;;;;;;;;;;;;;;16.19;56.22;97458.59;4217771;28;5707;-71
2023/01/01 15:50:56;;;;;;;;;;;;;;;16.20;56.17;97461.06;4232007;28;5645;-72
2023/01/01 15:53:01;;;;;;;;;;;;;;;16.21;56.07;97469.88;4217072;28;5658;-73
2023/01/01 15:55:05;;;;;;;;;;;;;;;16.20;56.15;97463.72;4217422;28;5609;-72
2023/01/01 15:57:18;;;;;;;;;;;;;;;16.19;56.20;97464.75;4226752;28;5609;-72
2023/01/01 15:59:29;;;;;;;;;;;;;;;16.16;56.24;97470.50;4229525;28;5687;-72
2023/01/01 16:01:35;;;;;;;;;;;;;;;16.14;56.28;97466.41;4230570;28;5977;-72
2023/01/01 16:03:40;;;;;;;;;;;;;;;16.12;56.16;97474.63;4201690;28;5757;-71
2023/01/01 16:05:46;;;;;;;;;;;;;;;16.12;56.15;97469.31;4214238;28;5760;-71
2023/01/01 16:07:57;;;;;;;;;;;;;;;16.11;56.17;97480.19;4213878;28;5629;-71
2023/01/01 16:10:00;;;;;;;;;;;;;;;16.11;56.06;97477.53;4219270;28;6488;-71
2023/01/01 16:12:03;;;;;;;;;;;;;;;16.09;56.18;97475.06;4225273;28;5704;-71
2023/01/01 16:14:05;;;;;;;;;;;;;;;16.09;56.28;97482.25;4222377;28;5730;-71
2023/01/01 16:16:26;;;;;;;;;;;;;;;16.08;56.23;97473.41;4226154;28;5704;-71
2023/01/01 16:18:32;;;;;;;;;;;;;;;16.08;56.15;97478.75;4226179;28;5677;-71
2023/01/01 16:20:35;;;;;;;;;;;;;;;16.06;56.05;97475.47;4231649;28;5879;-72
2023/01/01 16:22:38;;;;;;;;;;;;;;;16.07;55.95;97482.44;4219839;28;5613;-71
2023/01/01 16:24:41;;;;;;;;;;;;;;;16.05;56.19;97473.84;4225743;28;5723;-71
2023/01/01 16:26:45;;;;;;;;;;;;;;;16.05;56.09;97468.50;4226033;28;5727;-71
2023/01/01 16:28:48;;;;;;;;;;;;;;;16.06;56.11;97474.66;4213302;28;5708;-71
2023/01/01 16:30:51;;;;;;;;;;;;;;;16.06;56.11;97483.47;4225514;28;5844;-71
2023/01/01 16:32:55;;;;;;;;;;;;;;;16.03;56.22;97475.91;4217122;28;5597;-71
2023/01/01 16:34:58;;;;;;;;;;;;;;;16.02;56.15;97475.09;4217623;28;5704;-71
2023/01/01 16:37:01;;;;;;;;;;;;;;;16.01;56.13;97472.63;4225804;28;5735;-71
2023/01/01 16:39:04;;;;;;;;;;;;;;;16.02;56.25;97466.25;4224284;28;5704;-71
2023/01/01 16:41:06;;;;;;;;;;;;;;;16.01;56.27;97467.28;4217194;28;6459;-71
2023/01/01 16:43:15;;;;;;;;;;;;;;;16.03;56.21;97470.56;4219191;28;5620;-71
2023/01/01 16:45:18;;;;;;;;;;;;;;;16.05;56.15;97462.34;4231015;28;5712;-71
2023/01/01 16:47:21;;;;;;;;;;;;;;;16.04;56.06;97466.88;4225495;28;5617;-71
2023/01/01 16:49:26;;;;;;;;;;;;;;;16.04;56.14;97463.38;4225727;28;5605;-71
2023/01/01 16:51:30;;;;;;;;;;;;;;;16.01;56.21;97473.44;4225296;28;5629;-71
2023/01/01 16:53:33;;;;;;;;;;;;;;;16.01;56.32;97461.97;4207236;28;5620;-71
2023/01/01 16:55:35;;;;;;;;;;;;;;;16.01;56.10;97461.97;4225055;28;5687;-71
2023/01/01 16:57:38;;;;;;;;;;;;;;;16.01;56.30;97457.44;4222209;28;5621;-71
2023/01/01 16:59:41;;;;;;;;;;;;;;;16.02;56.13;97463.59;4225531;28;5711;-71
2023/01/01 17:01:46;;;;;;;;;;;;;;;16.03;56.15;97473.22;4224284;28;5766;-71
2023/01/01 17:03:50;;;;;;;;;;;;;;;16.01;56.35;97470.78;4214111;28;5723;-71
2023/01/01 17:05:54;;;;;;;;;;;;;;;16.03;56.21;97475.91;4210310;28;5623;-71
2023/01/01 17:07:57;;;;;;;;;;;;;;;16.02;56.26;97474.25;4214630;28;5653;-71
2023/01/01 17:10:03;;;;;;;;;;;;;;;16.01;56.12;97467.28;4207710;28;5966;-71
2023/01/01 17:12:06;;;;;;;;;;;;;;;16.01;56.17;97464.63;4223125;28;7691;-71
2023/01/01 17:14:10;;;;;;;;;;;;;;;16.02;56.21;97463.59;4216863;28;5598;-72
2023/01/01 17:16:15;;;;;;;;;;;;;;;16.02;56.07;97464.41;4215052;28;5711;-72
2023/01/01 17:18:27;;;;;;;;;;;;;;;16.01;56.12;97467.28;4215798;28;5716;-72
2023/01/01 17:20:50;;;;;;;;;;;;;;;16.01;56.23;97478.78;4216165;28;5625;-72
2023/01/01 17:22:56;;;;;;;;;;;;;;;16.00;56.06;97469.16;4216576;28;5671;-72
2023/01/01 17:24:59;;;;;;;;;;;;;;;16.01;56.14;97477.97;4216307;28;5715;-72
2023/01/01 17:27:02;;;;;;;;;;;;;;;16.01;56.21;97467.28;4215484;28;5740;-72
2023/01/01 17:29:06;;;;;;;;;;;;;;;16.00;56.34;97471.00;4216946;28;5815;-72
2023/01/01 17:31:11;;;;;;;;;;;;;;;16.00;56.17;97473.66;4216032;28;6340;-72
2023/01/01 17:33:14;;;;;;;;;;;;;;;16.01;56.06;97468.13;4215609;28;5850;-72
2023/01/01 17:35:17;;;;;;;;;;;;;;;16.00;56.20;97476.31;4216151;28;5699;-72
2023/01/01 17:37:20;;;;;;;;;;;;;;;15.99;56.28;97475.50;4213928;28;5662;-72
2023/01/01 17:39:24;;;;;;;;;;;;;;;15.99;56.21;97469.34;4213375;28;5589;-71
2023/01/01 17:41:31;;;;;;;;;;;;;;;15.98;56.27;97465.06;4206171;28;5621;-72
2023/01/01 17:43:36;;;;;;;;;;;;;;;15.97;56.22;97461.56;4191941;28;5623;-71